Eylar, Illinois
Current Conditions -  °F | °C
As of 2:15 PM on Wednesday 28 Jan 2015 (Local Time) from KPNT Reporting Station
Clear Clear  
Wind Chill: 26°   Ceiling: Unl
Heat Index: 36°   Visibility: 10mi
Dew Point: 30°   Wind: 16mph
Humidity: 79%   Direction: 140°SE
Pressure: 30.09"   Gusts: NA
Location:  40.8821°N, 88.4137°W
Report Text: KPNT 282015Z AUTO 14014KT 10SM CLR 02/M01 A3009 RMK AO2 T00201013
Loading
Personal Weather Stations






























Interactive Weather Map New forecast layout! Learn more

10-Day Weather Forecast

Advertisements
Track Severe Weather on mobile